الصفحة الرئيسية
METAR-TAF:

METAR-TAF

مطار :

مطار سونان الدولي

بيونغيانغ, كوريا الشمالية

دائرة عرض: 39-02N, خط طول: 125-47E, ارتفاع: 36 متر

METAR: مفقودة

زمن: 15:44 (06:44 UTC)

توقعات

تاريخ ووقت الإصدار 3ساعات و 4 دقيقة قبل الساعة 03:40UTC
التوقعات صالحة من16 الساعة 06 UTC إلى 17 الساعة 06 UTC
ريح 8 عقدة من الجنوب/الجنوب الشرقي
الرؤية 10 كم أو أكثر
ملبد بالغيوم على ارتفاع 2000 قدم
أصبح
من 16 الساعة 08 UTC إلى 16 الساعة 10 UTC
الرؤية: 6000 متر
ملبد بالغيوم على ارتفاع 1300 قدم
مطر خفيف,

TAF: ZKPY 160340Z 1606/1706 16004MPS 9999 OVC020 TX31/1606Z TN24/1621Z BECMG 1608/1610 6000 -RA OVC013

أرصاد الطقس والتوقعات من أكثر من 4000 مطار (تقارير الطقس للمطار METAR والتنبؤ بالطقس بالمطارTAF).

المحطات المتاحة هي النقط الصفراء والحمراء على الخريطة.

حرك المؤشر فوق النقطة لمعرفة اسم المحطة.

ثم انقر لمعرفة أرصاد وتوقعات الطقس.

لتغيير الخارطة: اضغط على الأزرار الخضراء مع رمز الصليب الأسود للتكبير. على الزر الأخضر مع شرطة للتصغير، أو على الأسهم الخضراء للخرائط المجاورة.


METAR-TAF: